Time;durP1;ratioP1;P1;durP2;ratioP2;P2;SDS_P1;SDS_P2;PMS_P1;PMS_P2;Temp;Humidity;BMP_temperature;BMP_pressure;BME280_temperature;BME280_humidity;BME280_pressure;Samples;Min_cycle;Max_cycle;Signal;HPM_P1;HPM_P2
2022/07/24 00:00:06;;;;;;;4.10;3.70;;;;;;;22.38;59.96;99685.02;1652693;85;21076;-74
2022/07/24 00:02:36;;;;;;;;;;;;;;;22.39;60.14;99693.48;1614517;88;21042;-74
2022/07/24 00:05:04;;;;;;;3.80;3.30;;;;;;;22.37;60.25;99688.89;1659892;85;21172;-74
2022/07/24 00:07:31;;;;;;;6.40;4.15;;;;;;;22.39;59.92;99696.23;1688295;84;21616;-74
2022/07/24 00:10:01;;;;;;;4.00;3.55;;;;;;;22.43;59.33;99684.03;1682993;84;21006;-75
2022/07/24 00:12:28;;;;;;;7.15;3.00;;;;;;;22.34;60.12;99680.52;1655619;85;21095;-75
2022/07/24 00:14:55;;;;;;;3.95;3.17;;;;;;;22.33;59.88;99680.28;1664301;85;21100;-75
2022/07/24 00:17:22;;;;;;;3.70;3.40;;;;;;;22.35;59.91;99684.88;1648903;86;21131;-76
2022/07/24 00:19:50;;;;;;;6.53;3.90;;;;;;;22.34;59.90;99684.07;1656310;86;21011;-77
2022/07/24 00:22:17;;;;;;;3.75;3.45;;;;;;;22.39;59.45;99683.09;1656196;86;21035;-74
2022/07/24 00:24:45;;;;;;;4.62;3.83;;;;;;;22.37;59.44;99679.30;1658188;85;21077;-75
2022/07/24 00:27:12;;;;;;;5.15;3.60;;;;;;;22.23;60.61;99674.59;1662772;85;21028;-75
2022/07/24 00:29:41;;;;;;;5.03;4.05;;;;;;;22.14;60.86;99671.88;1632318;87;21763;-77
2022/07/24 00:32:08;;;;;;;7.25;3.92;;;;;;;22.08;61.14;99669.63;1671399;85;21041;-77
2022/07/24 00:34:36;;;;;;;13.70;4.67;;;;;;;22.11;60.61;99668.97;1684890;85;21099;-76
2022/07/24 00:37:02;;;;;;;3.72;3.33;;;;;;;22.07;60.71;99672.13;1684794;85;21052;-74
2022/07/24 00:39:29;;;;;;;4.00;3.70;;;;;;;21.96;61.39;99661.30;1669815;85;21022;-76
2022/07/24 00:41:57;;;;;;;4.83;4.42;;;;;;;21.96;61.54;99662.11;1656430;85;21166;-74
2022/07/24 00:44:23;;;;;;;4.80;4.28;;;;;;;21.99;61.29;99664.19;1683146;85;21565;-73
2022/07/24 00:46:51;;;;;;;5.40;4.00;;;;;;;22.06;60.72;99666.44;1658361;85;21028;-74
2022/07/24 00:49:20;;;;;;;8.03;4.20;;;;;;;22.04;60.95;99664.02;1655799;86;21232;-73
2022/07/24 00:51:51;;;;;;;6.40;4.50;;;;;;;22.04;61.05;99664.02;1655576;85;21114;-74
2022/07/24 00:54:19;;;;;;;10.35;5.30;;;;;;;22.04;61.00;99656.36;1670400;85;21247;-72
2022/07/24 00:56:50;;;;;;;4.25;3.45;;;;;;;22.11;60.23;99651.16;1661887;85;21524;-80
2022/07/24 00:59:19;;;;;;;3.87;3.58;;;;;;;22.11;60.37;99656.64;1667678;84;21064;-80
2022/07/24 01:01:47;;;;;;;3.92;3.37;;;;;;;22.06;60.59;99651.37;1662197;85;21189;-77
2022/07/24 01:04:14;;;;;;;4.10;2.90;;;;;;;22.03;60.74;99659.66;1647723;85;21568;-76
2022/07/24 01:06:42;;;;;;;3.50;3.20;;;;;;;22.04;60.67;99664.57;1684852;85;22007;-76
2022/07/24 01:09:11;;;;;;;4.12;3.17;;;;;;;22.09;60.63;99661.66;1684834;85;21564;-77
2022/07/24 01:11:40;;;;;;;3.50;3.20;;;;;;;22.13;60.50;99666.72;1656823;85;21038;-78
2022/07/24 01:14:07;;;;;;;3.98;3.40;;;;;;;22.18;60.34;99665.17;1655567;85;21111;-80
2022/07/24 01:16:35;;;;;;;4.17;3.65;;;;;;;22.21;60.34;99669.98;1636536;86;21073;-80
2022/07/24 01:19:02;;;;;;;3.55;3.25;;;;;;;22.22;60.22;99676.27;1656039;86;21589;-79
2022/07/24 01:21:29;;;;;;;4.30;3.30;;;;;;;22.22;60.28;99672.97;1655786;86;21044;-76
2022/07/24 01:23:56;;;;;;;3.15;2.95;;;;;;;22.21;60.28;99680.95;1644298;85;21055;-78
2022/07/24 01:26:23;;;;;;;4.25;3.47;;;;;;;22.18;60.25;99675.58;1684166;85;21025;-82
2022/07/24 01:28:50;;;;;;;4.58;3.27;;;;;;;22.16;60.29;99684.67;1664366;85;21717;-73
2022/07/24 01:31:18;;;;;;;3.47;3.12;;;;;;;22.10;60.39;99686.00;1684972;85;20913;-72
2022/07/24 01:33:45;;;;;;;4.55;3.92;;;;;;;21.93;61.06;99681.07;1684826;85;22288;-74
2022/07/24 01:36:11;;;;;;;4.00;3.60;;;;;;;21.79;61.78;99677.71;1674714;85;21133;-75
2022/07/24 01:38:39;;;;;;;6.03;3.83;;;;;;;21.63;62.39;99686.42;1665908;85;21067;-74
2022/07/24 01:41:07;;;;;;;6.72;4.67;;;;;;;21.63;62.18;99687.78;1645085;87;20959;-74
2022/07/24 01:43:34;;;;;;;4.12;3.80;;;;;;;21.67;61.79;99679.20;1656462;85;21064;-74
2022/07/24 01:46:01;;;;;;;5.58;4.95;;;;;;;21.63;62.04;99675.47;1673195;85;21074;-74
2022/07/24 01:48:27;;;;;;;5.17;4.28;;;;;;;21.60;62.27;99675.31;1648768;85;21034;-74
2022/07/24 01:50:54;;;;;;;3.80;3.50;;;;;;;21.58;62.46;99673.48;1674028;85;21016;-74
2022/07/24 01:53:21;;;;;;;4.33;3.85;;;;;;;21.58;62.56;99680.33;1673922;85;21065;-74
2022/07/24 01:55:52;;;;;;;4.20;3.80;;;;;;;21.58;62.65;99676.22;1673623;85;21146;-70
2022/07/24 01:58:19;;;;;;;4.58;4.17;;;;;;;21.58;62.82;99668.79;1641557;84;21584;-74
2022/07/24 02:00:46;;;;;;;4.95;4.35;;;;;;;21.60;62.81;99673.95;1663427;85;21122;-74
2022/07/24 02:03:13;;;;;;;5.67;4.45;;;;;;;21.62;62.85;99678.55;1644992;87;21018;-73
2022/07/24 02:05:40;;;;;;;7.53;4.35;;;;;;;21.65;62.80;99686.11;1644848;86;21098;-73
2022/07/24 02:08:08;;;;;;;6.85;5.12;;;;;;;21.62;62.93;99686.77;1646859;85;21668;-74
2022/07/24 02:10:35;;;;;;;6.28;4.20;;;;;;;21.50;63.49;99685.22;1644896;87;21102;-74
2022/07/24 02:13:03;;;;;;;6.10;3.60;;;;;;;21.39;63.81;99679.84;1620645;86;21075;-74
2022/07/24 02:15:30;;;;;;;4.87;4.42;;;;;;;21.38;63.71;99691.34;1650473;85;21413;-73
2022/07/24 02:17:59;;;;;;;4.15;3.60;;;;;;;21.41;63.58;99685.78;1645583;85;21070;-74
2022/07/24 02:20:27;;;;;;;7.83;3.70;;;;;;;21.38;63.70;99679.59;1644894;87;21084;-76
2022/07/24 02:22:57;;;;;;;4.92;4.03;;;;;;;21.35;63.86;99676.11;1645627;87;21059;-75
2022/07/24 02:25:25;;;;;;;8.15;4.30;;;;;;;21.35;64.10;99681.59;1646404;87;20983;-75
2022/07/24 02:27:52;;;;;;;6.78;4.10;;;;;;;21.34;64.20;99676.70;1644521;87;21030;-74
2022/07/24 02:30:23;;;;;;;6.53;4.10;;;;;;;21.38;64.22;99683.70;1647132;85;21624;-75
2022/07/24 02:32:51;;;;;;;7.72;3.90;;;;;;;21.42;64.19;99685.47;1644960;87;21598;-77
2022/07/24 02:35:20;;;;;;;4.67;3.77;;;;;;;21.46;64.14;99682.89;1644881;86;21560;-75
2022/07/24 02:37:46;;;;;;;4.45;4.03;;;;;;;21.48;64.03;99681.45;1647501;85;21606;-76
2022/07/24 02:40:15;;;;;;;6.92;3.50;;;;;;;21.50;63.88;99681.92;1667866;85;21058;-74
2022/07/24 02:42:42;;;;;;;4.22;3.75;;;;;;;21.52;63.77;99678.88;1656211;85;21066;-75
2022/07/24 02:45:10;;;;;;;3.80;3.30;;;;;;;21.52;63.52;99676.95;1643102;87;21211;-77
2022/07/24 02:47:52;;;;;;;5.17;3.72;;;;;;;21.55;63.35;99681.77;1602277;88;21569;-76
2022/07/24 02:50:21;;;;;;;4.17;3.77;;;;;;;21.58;63.00;99678.37;1647628;87;21033;-76
2022/07/24 02:52:49;;;;;;;3.55;3.25;;;;;;;21.60;62.72;99676.13;1646537;87;21089;-75
2022/07/24 02:55:16;;;;;;;4.60;4.17;;;;;;;21.63;62.71;99676.84;1635579;87;21591;-77
2022/07/24 02:57:44;;;;;;;4.70;3.98;;;;;;;21.65;62.68;99675.16;1646513;84;21097;-81
2022/07/24 03:00:16;;;;;;;5.12;4.33;;;;;;;21.65;62.55;99675.96;1659803;85;21025;-85
2022/07/24 03:02:44;;;;;;;4.10;3.80;;;;;;;21.67;62.42;99673.72;1647554;85;21002;-76
2022/07/24 03:05:11;;;;;;;4.62;3.30;;;;;;;21.68;62.25;99669.02;1674025;85;21090;-75
2022/07/24 03:07:38;;;;;;;4.00;3.30;;;;;;;21.69;62.01;99668.70;1674270;85;20962;-76
2022/07/24 03:10:06;;;;;;;6.37;2.98;;;;;;;21.72;61.84;99674.92;1673859;85;21075;-76
2022/07/24 03:12:33;;;;;;;8.60;3.47;;;;;;;21.75;61.78;99674.83;1667447;85;21018;-75
2022/07/24 03:15:01;;;;;;;4.55;3.37;;;;;;;21.78;61.79;99670.62;1645064;87;21046;-76
2022/07/24 03:17:29;;;;;;;4.12;3.72;;;;;;;21.81;61.72;99676.84;1660690;85;22190;-73
2022/07/24 03:19:56;;;;;;;3.40;3.15;;;;;;;21.83;61.81;99675.37;1673790;85;21101;-73
2022/07/24 03:22:25;;;;;;;4.40;3.45;;;;;;;21.84;61.81;99672.87;1673907;85;21528;-71
2022/07/24 03:24:51;;;;;;;4.75;4.33;;;;;;;21.86;61.82;99676.11;1672284;85;21539;-74
2022/07/24 03:27:18;;;;;;;4.08;3.75;;;;;;;21.89;61.85;99677.38;1645048;87;21079;-74
2022/07/24 03:29:46;;;;;;;5.28;4.12;;;;;;;21.91;61.84;99676.50;1645119;87;21146;-77
2022/07/24 03:32:13;;;;;;;3.33;2.72;;;;;;;21.93;61.83;99668.75;1645571;87;21039;-75
2022/07/24 03:34:39;;;;;;;4.22;3.65;;;;;;;21.95;61.80;99669.27;1621762;86;21111;-73
2022/07/24 03:37:06;;;;;;;4.70;4.12;;;;;;;21.97;61.88;99669.73;1646418;87;21350;-75
2022/07/24 03:39:33;;;;;;;3.52;3.22;;;;;;;22.00;61.82;99666.36;1577570;89;21045;-76
2022/07/24 03:41:59;;;;;;;4.15;3.75;;;;;;;22.01;61.85;99668.78;1589579;90;21080;-74
2022/07/24 03:44:27;;;;;;;4.05;3.67;;;;;;;22.04;61.86;99665.94;1599793;88;21087;-74
2022/07/24 03:46:55;;;;;;;14.00;6.28;;;;;;;22.06;61.84;99667.80;1642601;87;21128;-76
2022/07/24 03:49:22;;;;;;;5.30;4.90;;;;;;;22.07;61.85;99666.65;1642729;87;21015;-76
2022/07/24 03:51:49;;;;;;;7.10;4.22;;;;;;;22.04;62.34;99661.84;1615306;88;21048;-77
2022/07/24 03:54:16;;;;;;;3.95;3.65;;;;;;;21.99;62.35;99663.38;1643087;87;21078;-77
2022/07/24 03:56:44;;;;;;;4.53;4.12;;;;;;;21.99;62.44;99666.92;1614950;87;21135;-76
2022/07/24 03:59:11;;;;;;;4.33;3.92;;;;;;;22.02;62.50;99671.73;1577547;88;21536;-77
2022/07/24 04:01:38;;;;;;;6.70;4.40;;;;;;;22.04;62.57;99667.31;1643226;87;21019;-78
2022/07/24 04:04:06;;;;;;;6.30;5.70;;;;;;;22.05;62.62;99666.19;1624396;87;21103;-76
2022/07/24 04:06:36;;;;;;;6.72;4.92;;;;;;;22.05;62.67;99668.37;1591794;88;21085;-73
2022/07/24 04:09:04;;;;;;;5.70;4.92;;;;;;;22.05;62.96;99660.71;1600818;87;21061;-73
2022/07/24 04:11:32;;;;;;;5.03;4.47;;;;;;;22.04;63.41;99660.47;1645773;87;21545;-75
2022/07/24 04:14:00;;;;;;;6.03;4.33;;;;;;;22.05;63.03;99660.15;1645051;86;21543;-75
2022/07/24 04:16:26;;;;;;;11.40;4.60;;;;;;;22.08;63.08;99654.56;1645349;87;20954;-74
2022/07/24 04:18:53;;;;;;;5.97;3.85;;;;;;;22.10;63.24;99659.97;1646804;85;21082;-74
2022/07/24 04:21:20;;;;;;;4.42;4.03;;;;;;;22.14;62.98;99658.19;1665937;85;21069;-75
2022/07/24 04:23:50;;;;;;;4.95;4.33;;;;;;;22.21;62.79;99659.59;1635100;87;21780;-75
2022/07/24 04:26:17;;;;;;;5.92;5.08;;;;;;;22.27;62.60;99657.73;1652296;85;20991;-76
2022/07/24 04:28:46;;;;;;;4.75;4.35;;;;;;;22.35;62.38;99663.73;1645545;87;21110;-77
2022/07/24 04:31:13;;;;;;;4.62;3.95;;;;;;;22.42;62.07;99657.19;1659987;85;21512;-74
2022/07/24 04:33:42;;;;;;;4.28;3.98;;;;;;;22.49;61.70;99660.80;1673833;85;21050;-75
2022/07/24 04:36:09;;;;;;;6.35;3.92;;;;;;;22.57;61.43;99664.06;1655352;85;21639;-75
2022/07/24 04:38:36;;;;;;;6.28;3.95;;;;;;;22.63;61.32;99655.09;1644392;87;21030;-79
2022/07/24 04:41:03;;;;;;;4.37;3.67;;;;;;;22.68;61.01;99652.97;1625872;87;21047;-77
2022/07/24 04:43:30;;;;;;;4.37;3.00;;;;;;;22.76;60.86;99655.44;1616845;87;21130;-75
2022/07/24 04:45:56;;;;;;;7.08;3.55;;;;;;;22.84;60.46;99655.95;1630852;87;21118;-77
2022/07/24 04:48:27;;;;;;;3.58;3.27;;;;;;;22.91;60.30;99652.94;1643915;87;21595;-76
2022/07/24 04:50:54;;;;;;;3.98;3.33;;;;;;;22.98;59.84;99653.20;1644570;87;21103;-75
2022/07/24 04:53:22;;;;;;;7.47;3.60;;;;;;;23.04;59.74;99647.76;1645074;87;21043;-76
2022/07/24 04:55:48;;;;;;;4.45;3.47;;;;;;;23.12;59.46;99641.18;1627383;87;21046;-77
2022/07/24 04:58:15;;;;;;;4.95;3.87;;;;;;;23.16;59.32;99636.06;1616956;87;21144;-77
2022/07/24 05:00:41;;;;;;;4.70;4.30;;;;;;;23.23;59.20;99637.69;1618990;87;21141;-76
2022/07/24 05:03:08;;;;;;;5.65;4.33;;;;;;;23.28;59.17;99637.48;1641433;86;20963;-76
2022/07/24 05:05:35;;;;;;;8.13;4.65;;;;;;;23.33;59.35;99634.55;1618451;88;21078;-76
2022/07/24 05:08:02;;;;;;;4.55;4.15;;;;;;;23.37;59.51;99634.66;1591953;88;21073;-76
2022/07/24 05:10:29;;;;;;;5.28;4.53;;;;;;;23.41;59.41;99635.02;1591127;88;21151;-76
2022/07/24 05:12:56;;;;;;;5.75;4.35;;;;;;;23.45;59.21;99631.09;1592145;88;21987;-77
2022/07/24 05:15:25;;;;;;;6.65;4.37;;;;;;;23.49;59.24;99627.91;1591862;90;21519;-77
2022/07/24 05:17:51;;;;;;;4.80;4.30;;;;;;;23.53;59.24;99628.83;1599350;87;21097;-75
2022/07/24 05:20:18;;;;;;;6.30;4.50;;;;;;;23.59;59.42;99627.48;1647236;87;21017;-75
2022/07/24 05:22:46;;;;;;;6.85;4.95;;;;;;;23.63;59.38;99619.37;1631155;86;21026;-76
2022/07/24 05:25:13;;;;;;;4.28;3.67;;;;;;;23.63;59.57;99614.69;1618998;88;21162;-78
2022/07/24 05:27:40;;;;;;;4.95;3.87;;;;;;;23.67;59.38;99612.86;1618836;88;21002;-79
2022/07/24 05:30:09;;;;;;;3.65;3.35;;;;;;;23.72;59.54;99614.02;1598981;87;21018;-78
2022/07/24 05:32:36;;;;;;;5.12;3.92;;;;;;;23.76;59.58;99620.44;1639794;87;21052;-79
2022/07/24 05:35:04;;;;;;;3.52;3.02;;;;;;;23.80;59.30;99615.06;1619035;87;21125;-77
2022/07/24 05:37:33;;;;;;;3.95;3.65;;;;;;;23.86;59.07;99618.64;1597428;87;20998;-78
2022/07/24 05:40:00;;;;;;;9.23;3.27;;;;;;;23.91;58.91;99612.13;1615323;88;21090;-79
2022/07/24 05:42:26;;;;;;;5.60;4.03;;;;;;;23.96;58.71;99609.73;1620362;87;21065;-78
2022/07/24 05:44:54;;;;;;;4.40;4.03;;;;;;;24.03;58.83;99612.73;1619305;88;21583;-74
2022/07/24 05:47:21;;;;;;;3.55;3.33;;;;;;;24.04;58.83;99606.88;1619302;87;21059;-75
2022/07/24 05:49:48;;;;;;;4.17;3.87;;;;;;;24.06;59.08;99603.23;1619174;88;21224;-75
2022/07/24 05:52:14;;;;;;;11.88;3.55;;;;;;;24.08;59.33;99600.11;1619137;88;21075;-75
2022/07/24 05:54:41;;;;;;;3.75;3.45;;;;;;;24.12;59.21;99601.06;1621810;87;21062;-80
2022/07/24 05:57:08;;;;;;;5.12;3.37;;;;;;;24.18;59.23;99610.13;1618936;88;21121;-82
2022/07/24 05:59:35;;;;;;;3.77;3.35;;;;;;;24.24;58.49;99601.09;1597621;88;21070;-81
2022/07/24 06:02:04;;;;;;;5.45;3.83;;;;;;;24.30;58.15;99606.59;1619411;88;21943;-81
2022/07/24 06:04:33;;;;;;;7.37;3.60;;;;;;;24.35;57.73;99600.07;1618285;88;21079;-79
2022/07/24 06:07:00;;;;;;;4.42;3.37;;;;;;;24.42;57.50;99601.66;1619574;87;21030;-82
2022/07/24 06:09:26;;;;;;;4.05;3.50;;;;;;;24.49;57.17;99597.20;1619123;88;21055;-80
2022/07/24 06:11:53;;;;;;;2.83;2.62;;;;;;;24.55;56.89;99593.09;1617880;87;21147;-80
2022/07/24 06:14:21;;;;;;;8.55;3.30;;;;;;;24.62;56.63;99593.86;1627976;87;21103;-81
2022/07/24 06:16:48;;;;;;;6.35;3.22;;;;;;;24.69;56.44;99596.84;1641131;87;21039;-81
2022/07/24 06:19:17;;;;;;;5.53;3.27;;;;;;;24.75;55.74;99600.38;1621247;87;21047;-81
2022/07/24 06:21:44;;;;;;;3.47;3.17;;;;;;;24.82;55.00;99604.50;1677313;85;20969;-78
2022/07/24 06:24:10;;;;;;;4.42;2.83;;;;;;;24.88;54.52;99605.91;1662993;85;21102;-78
2022/07/24 06:26:37;;;;;;;3.58;2.42;;;;;;;24.95;54.02;99604.73;1670480;85;22660;-79
2022/07/24 06:29:04;;;;;;;5.08;2.55;;;;;;;25.02;53.69;99608.52;1675885;85;21041;-80
2022/07/24 06:31:32;;;;;;;11.30;3.05;;;;;;;25.10;53.41;99604.01;1673071;85;20959;-78
2022/07/24 06:33:58;;;;;;;2.85;2.65;;;;;;;25.19;52.87;99610.17;1673827;85;21066;-78
2022/07/24 06:36:27;;;;;;;2.80;2.65;;;;;;;25.25;53.01;99606.59;1677987;84;21595;-77
2022/07/24 06:38:54;;;;;;;2.92;2.72;;;;;;;25.32;53.22;99602.69;1665546;84;21784;-77
2022/07/24 06:41:21;;;;;;;4.85;4.45;;;;;;;25.39;53.14;99608.38;1665007;86;21019;-76
2022/07/24 06:43:49;;;;;;;7.33;2.80;;;;;;;25.47;52.15;99608.22;1665038;86;21076;-78
2022/07/24 06:46:16;;;;;;;3.80;3.50;;;;;;;25.52;51.87;99609.92;1655958;86;21075;-76
2022/07/24 06:48:44;;;;;;;3.20;2.83;;;;;;;25.55;51.77;99612.03;1682821;85;21115;-76
2022/07/24 06:51:11;;;;;;;4.72;2.47;;;;;;;25.55;51.62;99607.33;1677566;85;21197;-77
2022/07/24 06:53:40;;;;;;;5.25;4.20;;;;;;;25.57;51.81;99609.70;1655168;85;21579;-75
2022/07/24 06:56:07;;;;;;;5.15;3.40;;;;;;;25.59;52.07;99612.92;1657171;86;21023;-75
2022/07/24 06:58:35;;;;;;;3.58;2.85;;;;;;;25.63;51.80;99600.05;1656203;85;21694;-77
2022/07/24 07:01:02;;;;;;;6.28;3.17;;;;;;;25.68;52.24;99599.79;1644009;86;21099;-77
2022/07/24 07:03:29;;;;;;;2.98;2.77;;;;;;;25.72;52.35;99602.05;1654616;86;21100;-74
2022/07/24 07:05:56;;;;;;;5.17;2.83;;;;;;;25.79;51.74;99606.39;1665093;85;21043;-74
2022/07/24 07:08:23;;;;;;;3.65;3.00;;;;;;;25.83;51.63;99605.11;1656749;85;21517;-76
2022/07/24 07:10:51;;;;;;;4.35;3.00;;;;;;;25.85;51.71;99598.07;1666751;85;21576;-76
2022/07/24 07:13:18;;;;;;;6.37;2.98;;;;;;;25.91;51.95;99608.27;1669952;85;21084;-77
2022/07/24 07:15:45;;;;;;;3.75;3.45;;;;;;;25.97;51.55;99590.31;1684113;84;21058;-76
2022/07/24 07:18:13;;;;;;;3.98;3.62;;;;;;;26.03;51.09;99603.49;1684609;84;21039;-77
2022/07/24 07:20:42;;;;;;;3.02;2.83;;;;;;;26.06;50.50;99585.42;1672054;85;21091;-75
2022/07/24 07:23:10;;;;;;;4.08;3.52;;;;;;;26.11;50.41;99592.62;1658643;85;21128;-78
2022/07/24 07:25:38;;;;;;;4.35;3.20;;;;;;;26.13;50.55;99577.35;1684035;85;21039;-77
2022/07/24 07:28:07;;;;;;;7.37;3.60;;;;;;;26.16;50.67;99578.58;1666021;85;21120;-76
2022/07/24 07:30:35;;;;;;;4.62;3.45;;;;;;;26.19;50.82;99584.75;1660334;85;20995;-75
2022/07/24 07:33:02;;;;;;;3.58;2.62;;;;;;;26.24;50.96;99565.20;1684732;85;21556;-74
2022/07/24 07:35:29;;;;;;;4.25;3.20;;;;;;;26.27;50.27;99558.42;1675535;85;21016;-76
2022/07/24 07:37:57;;;;;;;4.58;3.17;;;;;;;26.33;49.59;99562.48;1650048;85;21054;-77
2022/07/24 07:40:25;;;;;;;5.33;2.70;;;;;;;26.37;49.21;99568.11;1662879;85;21507;-79
2022/07/24 07:42:56;;;;;;;5.62;3.33;;;;;;;26.40;49.45;99561.87;1663390;85;21560;-79
2022/07/24 07:45:24;;;;;;;2.70;2.50;;;;;;;26.45;49.63;99561.02;1673751;85;21098;-75
2022/07/24 07:47:53;;;;;;;3.80;2.87;;;;;;;26.52;49.55;99557.63;1673726;85;21046;-76
2022/07/24 07:50:21;;;;;;;2.50;2.30;;;;;;;26.59;49.44;99556.98;1648707;85;21061;-76
2022/07/24 07:52:49;;;;;;;6.45;3.10;;;;;;;26.65;49.26;99561.87;1648843;85;21362;-76
2022/07/24 07:55:16;;;;;;;3.00;2.70;;;;;;;26.71;49.20;99555.49;1655118;85;21050;-76
2022/07/24 07:57:43;;;;;;;8.08;3.17;;;;;;;26.77;48.87;99556.78;1644799;85;20996;-78
2022/07/24 08:00:11;;;;;;;2.27;2.12;;;;;;;26.80;47.73;99559.65;1647175;85;21139;-73
2022/07/24 08:02:38;;;;;;;2.80;2.47;;;;;;;26.85;46.71;99544.19;1646357;87;22285;-74
2022/07/24 08:05:06;;;;;;;5.83;2.60;;;;;;;26.92;46.23;99552.41;1645801;87;21138;-75
2022/07/24 08:07:32;;;;;;;2.37;2.22;;;;;;;26.99;46.30;99553.95;1599240;87;21103;-79
2022/07/24 08:10:00;;;;;;;5.65;2.52;;;;;;;27.07;44.75;99555.11;1654336;85;21117;-75
2022/07/24 08:12:27;;;;;;;3.50;3.22;;;;;;;27.10;44.69;99541.95;1673150;85;21492;-74
2022/07/24 08:14:55;;;;;;;3.85;2.45;;;;;;;27.13;44.82;99545.38;1673887;85;21127;-77
2022/07/24 08:17:23;;;;;;;2.15;2.05;;;;;;;27.18;45.14;99545.09;1673700;85;21172;-78
2022/07/24 08:19:51;;;;;;;5.60;2.55;;;;;;;27.23;45.19;99549.52;1668360;85;20947;-76
2022/07/24 08:22:20;;;;;;;2.52;2.33;;;;;;;27.23;45.06;99544.80;1670196;85;21529;-75
2022/07/24 08:24:47;;;;;;;3.25;2.22;;;;;;;27.26;44.85;99535.77;1646844;85;21035;-77
2022/07/24 08:27:18;;;;;;;5.72;2.45;;;;;;;27.29;44.41;99532.27;1645076;87;21058;-77
2022/07/24 08:29:46;;;;;;;2.27;2.17;;;;;;;27.37;44.28;99537.37;1644826;86;21179;-79
2022/07/24 08:32:13;;;;;;;2.67;2.47;;;;;;;27.48;43.85;99541.72;1654663;85;21071;-79
2022/07/24 08:34:41;;;;;;;6.08;3.05;;;;;;;27.54;43.32;99533.36;1674178;85;21633;-82
2022/07/24 08:37:08;;;;;;;2.80;2.60;;;;;;;27.58;43.62;99535.59;1672965;85;21014;-78
2022/07/24 08:39:35;;;;;;;4.05;2.33;;;;;;;27.66;43.56;99531.81;1650772;85;21018;-80
2022/07/24 08:42:01;;;;;;;2.80;2.47;;;;;;;27.70;42.72;99522.42;1642899;85;21611;-78
2022/07/24 08:44:29;;;;;;;3.40;2.50;;;;;;;27.76;42.27;99527.06;1640378;85;21069;-80
2022/07/24 08:46:57;;;;;;;3.58;2.37;;;;;;;27.82;41.54;99523.41;1640723;87;21389;-79
2022/07/24 08:49:26;;;;;;;2.25;2.15;;;;;;;27.87;40.79;99524.45;1641510;85;21739;-77
2022/07/24 08:51:53;;;;;;;3.27;2.27;;;;;;;27.91;40.96;99510.14;1641121;87;21071;-77
2022/07/24 08:54:20;;;;;;;3.02;2.40;;;;;;;27.96;40.58;99515.36;1650102;85;22018;-76
2022/07/24 08:56:47;;;;;;;2.47;2.20;;;;;;;28.01;40.80;99512.28;1645433;85;21129;-76
2022/07/24 08:59:21;;;;;;;3.30;2.30;;;;;;;28.09;40.86;99520.31;1648662;86;21048;-77
2022/07/24 09:01:49;;;;;;;4.50;2.52;;;;;;;28.16;41.37;99516.30;1642984;87;21075;-78
2022/07/24 09:04:44;;;;;;;5.35;2.17;;;;;;;28.26;39.96;99521.78;1663663;85;21023;-77
2022/07/24 09:07:17;;;;;;;3.00;2.58;;;;;;;28.32;39.90;99518.91;1655677;85;21546;-77
2022/07/24 09:10:06;;;;;;;2.58;2.05;;;;;;;28.33;40.26;99505.88;1642851;87;20973;-78
2022/07/24 09:12:38;;;;;;;2.90;2.58;;;;;;;28.38;40.24;99504.98;1645620;85;21580;-80
2022/07/24 09:15:20;;;;;;;4.57;2.23;;;;;;;28.51;39.89;99512.47;1673416;85;21113;-86
2022/07/24 09:17:56;;;;;;;2.33;2.10;;;;;;;28.54;39.49;99505.59;1683411;83;21075;-74
2022/07/24 09:20:27;;;;;;;4.55;2.50;;;;;;;28.59;38.98;99503.88;1702566;83;21259;-76
2022/07/24 09:22:59;;;;;;;2.35;2.15;;;;;;;28.59;38.98;99496.96;1708092;83;21153;-77
2022/07/24 09:25:28;;;;;;;2.47;2.27;;;;;;;28.71;38.76;99503.45;1681962;85;21583;-76
2022/07/24 09:27:58;;;;;;;2.35;2.15;;;;;;;28.77;38.17;99495.06;1682135;85;21065;-75
2022/07/24 09:30:36;;;;;;;2.75;2.33;;;;;;;28.79;37.85;99496.27;1681939;85;21117;-77
2022/07/24 09:33:08;;;;;;;3.17;2.30;;;;;;;28.86;38.20;99498.34;1681979;85;21146;-77
2022/07/24 09:35:41;;;;;;;4.85;2.35;;;;;;;28.96;37.99;99497.09;1681521;83;21354;-78
2022/07/24 09:38:15;;;;;;;4.40;1.80;;;;;;;29.08;38.04;99491.87;1676979;85;21073;-75
2022/07/24 09:40:47;;;;;;;2.33;2.12;;;;;;;29.16;37.92;99489.99;1675167;85;21101;-76
2022/07/24 09:43:21;;;;;;;2.40;2.25;;;;;;;29.21;37.46;99490.42;1649677;86;21021;-80
2022/07/24 09:46:08;;;;;;;2.42;2.27;;;;;;;29.27;37.26;99490.88;1680162;85;21469;-78
2022/07/24 09:48:40;;;;;;;2.55;2.35;;;;;;;29.32;37.36;99491.96;1676104;85;21049;-74
2022/07/24 09:51:13;;;;;;;2.43;2.23;;;;;;;29.41;37.47;99504.92;1677193;84;21109;-76
2022/07/24 09:53:44;;;;;;;3.98;2.52;;;;;;;29.50;37.45;99502.63;1683704;84;21014;-76
2022/07/24 09:56:13;;;;;;;2.58;2.37;;;;;;;29.56;37.57;99503.09;1655961;85;21110;-78
2022/07/24 09:58:51;;;;;;;6.83;2.10;;;;;;;29.52;37.08;99509.98;1675008;85;21154;-77
2022/07/24 10:01:21;;;;;;;3.20;2.77;;;;;;;29.48;37.36;99509.75;1683624;84;21536;-72
2022/07/24 10:03:49;;;;;;;2.83;2.60;;;;;;;29.48;37.64;99500.84;1678381;84;21069;-71
2022/07/24 10:06:20;;;;;;;6.65;3.25;;;;;;;29.57;37.78;99501.91;1674908;85;21102;-71
2022/07/24 10:08:49;;;;;;;5.50;2.67;;;;;;;29.61;37.53;99494.42;1652148;85;21579;-70
2022/07/24 10:11:16;;;;;;;3.05;2.75;;;;;;;29.68;37.74;99496.69;1677169;85;21266;-71
2022/07/24 10:13:43;;;;;;;4.65;3.10;;;;;;;29.74;37.46;99487.41;1681507;85;20998;-72
2022/07/24 10:16:31;;;;;;;2.90;2.25;;;;;;;29.66;37.63;99493.48;1659580;85;21539;-70
2022/07/24 10:19:03;;;;;;;2.37;2.27;;;;;;;29.68;37.91;99507.78;1654633;86;37945;-72
2022/07/24 10:21:35;;;;;;;2.47;2.22;;;;;;;29.69;37.61;99499.64;1639767;85;21020;-72
2022/07/24 10:24:10;;;;;;;5.12;4.72;;;;;;;29.67;37.47;99506.18;1672189;85;21127;-72
2022/07/24 10:26:44;;;;;;;3.65;3.35;;;;;;;29.67;37.62;99499.84;1680248;85;21025;-73
2022/07/24 10:29:15;;;;;;;7.95;2.80;;;;;;;29.60;37.73;99500.55;1680703;85;21109;-71
2022/07/24 10:31:44;;;;;;;3.80;2.90;;;;;;;29.54;37.92;99492.98;1682260;85;21182;-70
2022/07/24 10:34:49;;;;;;;5.47;3.17;;;;;;;29.56;37.46;99500.31;1676070;85;21152;-71
2022/07/24 10:37:56;;;;;;;2.40;2.20;;;;;;;29.60;37.87;99490.85;1682055;84;21318;-74
2022/07/24 10:40:37;;;;;;;4.05;2.83;;;;;;;29.68;37.79;99488.38;1640238;86;21009;-74
2022/07/24 10:43:09;;;;;;;;;;;;;;;29.78;37.50;99483.52;1657533;86;21024;-72
2022/07/24 10:45:46;;;;;;;2.25;2.05;;;;;;;29.89;37.46;99482.22;1671984;85;20205;-74
2022/07/24 10:48:26;;;;;;;6.33;2.52;;;;;;;30.00;37.02;99479.53;1682245;85;21029;-71
2022/07/24 10:51:03;;;;;;;5.65;2.72;;;;;;;30.08;36.93;99478.39;1682213;85;21136;-76
2022/07/24 10:53:41;;;;;;;6.87;3.08;;;;;;;30.11;36.89;99474.28;1682148;84;21017;-72
2022/07/24 10:56:30;;;;;;;4.72;2.52;;;;;;;30.17;37.00;99482.42;1670974;84;20981;-73
2022/07/24 10:59:20;;;;;;;6.78;2.40;;;;;;;30.27;36.65;99476.16;1662084;85;21009;-72
2022/07/24 11:01:50;;;;;;;14.53;2.65;;;;;;;30.31;36.40;99461.70;1679219;85;21060;-71
2022/07/24 11:04:25;;;;;;;10.38;3.33;;;;;;;30.29;36.70;99466.86;1658956;85;21330;-71
2022/07/24 11:07:13;;;;;;;3.10;2.85;;;;;;;30.30;36.81;99475.40;1655012;86;20993;-70
2022/07/24 11:09:57;;;;;;;3.52;2.42;;;;;;;30.28;36.44;99479.73;1653226;85;21024;-70
2022/07/24 11:12:30;;;;;;;5.60;2.40;;;;;;;30.21;36.83;99476.34;1681243;85;21000;-76
2022/07/24 11:15:54;;;;;;;8.98;2.60;;;;;;;30.11;36.77;99474.87;1674454;85;21537;-71
2022/07/24 11:17:43;;;;;;;6.40;2.65;;;;;;;29.98;37.13;99476.34;1651571;86;21126;-68
2022/07/24 11:20:15;;;;;;;3.35;2.15;;;;;;;29.85;37.30;99487.72;1670886;85;21068;-69
2022/07/24 11:22:54;;;;;;;2.90;1.75;;;;;;;29.73;37.02;99488.02;1681917;85;21024;-69
2022/07/24 11:25:24;;;;;;;8.58;6.28;;;;;;;29.64;37.04;99475.05;1681417;85;21100;-78
2022/07/24 11:27:59;;;;;;;4.00;3.70;;;;;;;29.60;37.08;99467.87;1681496;84;21044;-73
2022/07/24 11:30:28;;;;;;;4.22;2.33;;;;;;;29.58;37.06;99473.83;1676235;85;21754;-74
2022/07/24 11:32:57;;;;;;;4.20;1.82;;;;;;;29.52;37.06;99477.31;1682259;85;21104;-75
2022/07/24 11:35:30;;;;;;;2.98;2.10;;;;;;;29.49;37.02;99460.87;1679587;84;22145;-74
2022/07/24 11:37:59;;;;;;;3.77;2.15;;;;;;;29.43;36.96;99468.73;1681735;84;21005;-71
2022/07/24 11:40:26;;;;;;;3.25;2.42;;;;;;;29.35;36.84;99468.44;1678289;84;21566;-74
2022/07/24 11:43:00;;;;;;;5.95;2.47;;;;;;;29.29;37.00;99450.55;1672327;85;21101;-72